createdAt,value
2018-01-27T00:01:20.129Z,69.60
2018-01-27T00:03:48.546Z,68.62
2018-01-27T00:06:17.146Z,73.50
2018-01-27T00:08:45.574Z,68.90
2018-01-27T00:11:13.984Z,71.55
2018-01-27T00:13:51.228Z,73.78
2018-01-27T00:16:19.636Z,74.20
2018-01-27T00:18:48.141Z,74.55
2018-01-27T00:21:16.641Z,71.35
2018-01-27T00:23:45.050Z,70.78
2018-01-27T00:26:13.553Z,69.72
2018-01-27T00:28:42.026Z,73.68
2018-01-27T00:31:10.484Z,69.25
2018-01-27T00:33:38.950Z,68.72
2018-01-27T00:36:07.380Z,71.25
2018-01-27T00:38:35.894Z,70.00
2018-01-27T00:41:04.323Z,72.32
2018-01-27T00:43:32.776Z,71.07
2018-01-27T00:46:01.277Z,72.57
2018-01-27T00:48:29.689Z,72.75
2018-01-27T00:50:58.129Z,67.68
2018-01-27T00:53:26.585Z,71.18
2018-01-27T00:55:55.101Z,68.00
2018-01-27T00:58:23.530Z,77.90
2018-01-27T01:00:52.038Z,69.35
2018-01-27T01:03:20.541Z,66.70
2018-01-27T01:05:48.957Z,74.90
2018-01-27T01:08:17.417Z,76.75
2018-01-27T01:10:45.920Z,80.72
2018-01-27T01:13:14.422Z,79.05
2018-01-27T01:15:42.935Z,84.07
2018-01-27T01:18:11.384Z,86.70
2018-01-27T01:20:39.889Z,88.60
2018-01-27T01:23:08.304Z,89.03
2018-01-27T01:25:36.775Z,87.57
2018-01-27T01:28:05.253Z,92.82
2018-01-27T01:30:33.699Z,95.10
2018-01-27T01:33:02.143Z,93.68
2018-01-27T01:35:30.598Z,96.72
2018-01-27T01:37:59.086Z,93.93
2018-01-27T01:40:27.528Z,102.62
2018-01-27T01:43:01.406Z,89.53
2018-01-27T01:48:11.049Z,95.82
2018-01-27T01:50:39.470Z,99.18
2018-01-27T01:53:07.880Z,92.07
2018-01-27T01:55:36.401Z,101.85
2018-01-27T01:58:04.834Z,97.10
2018-01-27T02:00:33.298Z,94.80
2018-01-27T02:03:01.752Z,95.25
2018-01-27T02:05:30.242Z,108.87
2018-01-27T02:07:58.705Z,98.25
2018-01-27T02:10:27.243Z,100.43
2018-01-27T02:12:55.845Z,100.60
2018-01-27T02:15:24.253Z,97.85
2018-01-27T02:17:52.762Z,100.03
2018-01-27T02:20:21.170Z,102.00
2018-01-27T02:22:49.681Z,102.43
2018-01-27T02:25:18.145Z,103.68
2018-01-27T02:27:46.593Z,94.05
2018-01-27T02:30:15.029Z,99.45
2018-01-27T02:36:17.715Z,95.87
2018-01-27T02:38:46.117Z,99.53
2018-01-27T02:41:14.574Z,98.43
2018-01-27T02:43:43.088Z,94.22
2018-01-27T02:46:11.625Z,90.30
2018-01-27T02:48:40.055Z,104.25
2018-01-27T02:51:08.600Z,94.18
2018-01-27T02:53:37.034Z,97.12
2018-01-27T02:56:05.465Z,101.03
2018-01-27T02:58:33.981Z,103.57
2018-01-27T03:01:02.477Z,107.12
2018-01-27T03:03:30.891Z,111.05
2018-01-27T03:05:59.405Z,100.65
2018-01-27T03:08:27.824Z,112.70
2018-01-27T03:10:56.269Z,105.82
2018-01-27T03:13:24.727Z,109.45
2018-01-27T03:15:53.233Z,106.37
2018-01-27T03:18:21.652Z,109.65
2018-01-27T03:20:50.158Z,116.85
2018-01-27T03:23:18.576Z,114.10
2018-01-27T03:25:46.998Z,114.82
2018-01-27T03:28:15.530Z,105.25
2018-01-27T03:30:43.999Z,107.45
2018-01-27T03:33:12.462Z,107.05
2018-01-27T03:35:40.889Z,106.75
2018-01-27T03:38:09.393Z,112.68
2018-01-27T03:40:37.812Z,97.88
2018-01-27T03:43:06.414Z,106.12
2018-01-27T03:45:34.841Z,106.40
2018-01-27T03:48:03.297Z,108.12
2018-01-27T03:50:31.802Z,103.10
2018-01-27T03:53:00.205Z,99.60
2018-01-27T03:55:28.664Z,101.68
2018-01-27T03:57:57.157Z,103.28
2018-01-27T04:00:25.676Z,99.20
2018-01-27T04:02:54.108Z,98.07
2018-01-27T04:05:23.014Z,99.30
2018-01-27T04:07:51.481Z,100.97
2018-01-27T04:10:19.876Z,95.43
2018-01-27T04:12:48.325Z,93.78
2018-01-27T04:15:16.792Z,98.03
2018-01-27T04:17:45.240Z,93.00
2018-01-27T04:20:13.647Z,94.45
2018-01-27T04:22:42.056Z,91.63
2018-01-27T04:25:10.509Z,92.43
2018-01-27T04:27:38.969Z,85.82
2018-01-27T04:30:07.412Z,91.70
2018-01-27T04:32:35.872Z,88.18
2018-01-27T04:35:04.369Z,89.55
2018-01-27T04:37:32.794Z,87.90
2018-01-27T04:40:01.260Z,79.90
2018-01-27T04:42:29.718Z,99.85
2018-01-27T04:44:58.129Z,81.75
2018-01-27T04:47:26.573Z,85.00
2018-01-27T04:49:54.965Z,82.82
2018-01-27T04:52:23.396Z,82.72
2018-01-27T04:54:51.867Z,83.12
2018-01-27T04:57:20.361Z,86.57
2018-01-27T04:59:48.818Z,71.53
2018-01-27T05:02:17.225Z,78.68
2018-01-27T05:04:45.729Z,78.55
2018-01-27T05:07:14.180Z,74.30
2018-01-27T05:09:42.597Z,80.43
2018-01-27T05:12:11.053Z,74.20
2018-01-27T05:14:39.484Z,76.50
2018-01-27T05:17:07.986Z,79.05
2018-01-27T05:19:36.437Z,73.22
2018-01-27T05:22:04.877Z,71.78
2018-01-27T05:24:33.351Z,71.72
2018-01-27T05:27:01.799Z,74.85
2018-01-27T05:29:30.211Z,71.20
2018-01-27T05:31:58.648Z,82.40
2018-01-27T05:34:27.030Z,86.15
2018-01-27T05:36:55.483Z,80.90
2018-01-27T05:39:23.924Z,99.57
2018-01-27T05:41:52.415Z,95.65
2018-01-27T05:44:20.870Z,85.47
2018-01-27T05:46:49.280Z,80.95
2018-01-27T05:49:17.687Z,82.85
2018-01-27T05:51:46.131Z,77.12
2018-01-27T05:54:14.634Z,87.78
2018-01-27T05:56:43.082Z,94.78
2018-01-27T05:59:11.552Z,81.18
2018-01-27T06:01:40.026Z,85.72
2018-01-27T06:04:08.482Z,90.78
2018-01-27T06:06:36.947Z,83.35
2018-01-27T06:09:05.372Z,85.80
2018-01-27T06:11:33.889Z,80.18
2018-01-27T06:14:02.336Z,77.57
2018-01-27T06:16:30.732Z,80.32
2018-01-27T06:18:59.149Z,82.05
2018-01-27T06:21:27.665Z,81.82
2018-01-27T06:23:56.072Z,83.37
2018-01-27T06:26:24.569Z,85.65
2018-01-27T06:28:52.999Z,96.25
2018-01-27T06:31:21.439Z,86.97
2018-01-27T06:33:49.855Z,82.32
2018-01-27T06:36:18.362Z,78.22
2018-01-27T06:38:46.808Z,74.75
2018-01-27T06:41:15.245Z,80.90
2018-01-27T06:43:43.713Z,87.78
2018-01-27T06:46:12.122Z,82.93
2018-01-27T06:48:40.580Z,86.30
2018-01-27T06:51:09.053Z,80.82
2018-01-27T06:53:37.568Z,91.78
2018-01-27T06:56:05.977Z,83.07
2018-01-27T06:58:34.417Z,68.53
2018-01-27T07:01:02.865Z,66.47
2018-01-27T07:03:31.254Z,83.97
2018-01-27T07:05:59.678Z,104.03
2018-01-27T07:08:28.112Z,81.80
2018-01-27T07:10:56.567Z,80.53
2018-01-27T07:13:25.010Z,96.82
2018-01-27T07:15:53.400Z,156.10
2018-01-27T07:18:21.848Z,178.23
2018-01-27T07:20:50.313Z,103.90
2018-01-27T07:23:18.745Z,127.20
2018-01-27T07:25:47.229Z,121.07
2018-01-27T07:28:15.711Z,109.57
2018-01-27T07:30:44.112Z,126.47
2018-01-27T07:33:12.598Z,115.97
2018-01-27T07:35:41.065Z,109.43
2018-01-27T07:38:09.525Z,104.63
2018-01-27T07:40:38.013Z,98.37
2018-01-27T07:43:06.456Z,101.23
2018-01-27T07:45:34.992Z,101.20
2018-01-27T07:48:03.397Z,97.10
2018-01-27T07:50:31.796Z,98.67
2018-01-27T07:53:00.249Z,95.47
2018-01-27T07:55:28.694Z,89.40
2018-01-27T07:57:57.144Z,93.87
2018-01-27T08:00:25.521Z,98.23
2018-01-27T08:02:54.017Z,97.03
2018-01-27T08:05:23.165Z,100.43
2018-01-27T08:07:51.575Z,102.20
2018-01-27T08:10:20.030Z,110.53
2018-01-27T08:12:48.505Z,101.43
2018-01-27T08:15:16.960Z,98.47
2018-01-27T08:17:45.389Z,96.87
2018-01-27T08:20:13.845Z,89.30
2018-01-27T08:22:42.265Z,94.17
2018-01-27T08:25:10.677Z,98.63
2018-01-27T08:27:39.112Z,100.10
2018-01-27T08:30:07.501Z,91.33
2018-01-27T08:32:36.004Z,97.77
2018-01-27T08:35:04.463Z,95.53
2018-01-27T08:37:32.858Z,95.10
2018-01-27T08:40:01.277Z,92.37
2018-01-27T08:42:29.732Z,91.63
2018-01-27T08:44:58.225Z,87.67
2018-01-27T08:47:27.582Z,88.07
2018-01-27T08:49:56.009Z,89.20
2018-01-27T08:52:24.457Z,97.13
2018-01-27T08:54:52.906Z,90.87
2018-01-27T08:57:21.378Z,86.53
2018-01-27T08:59:49.801Z,84.20
2018-01-27T09:02:18.250Z,79.63
2018-01-27T09:04:46.699Z,77.57
2018-01-27T09:07:15.124Z,71.43
2018-01-27T09:09:43.610Z,86.27
2018-01-27T09:12:12.000Z,73.83
2018-01-27T09:14:40.489Z,77.20
2018-01-27T09:17:08.949Z,78.63
2018-01-27T09:19:37.417Z,73.93
2018-01-27T09:22:05.844Z,77.50
2018-01-27T09:24:34.321Z,70.63
2018-01-27T09:27:02.810Z,71.87
2018-01-27T09:29:31.297Z,73.90
2018-01-27T09:31:59.741Z,73.83
2018-01-27T09:34:28.194Z,70.93
2018-01-27T09:36:56.645Z,71.20
2018-01-27T09:39:25.099Z,71.50
2018-01-27T09:41:53.593Z,75.53
2018-01-27T09:44:21.992Z,73.10
2018-01-27T09:46:50.399Z,75.63
2018-01-27T09:49:18.823Z,71.93
2018-01-27T09:51:47.233Z,78.50
2018-01-27T09:54:15.700Z,87.13
2018-01-27T09:56:44.188Z,70.13
2018-01-27T09:59:12.616Z,69.93
2018-01-27T10:01:41.021Z,68.30
2018-01-27T10:04:09.479Z,62.57
2018-01-27T10:06:37.940Z,62.70
2018-01-27T10:09:06.433Z,61.27
2018-01-27T10:11:34.867Z,62.37
2018-01-27T10:14:03.317Z,58.40
2018-01-27T10:16:31.825Z,54.67
2018-01-27T10:19:00.217Z,59.13
2018-01-27T10:21:28.657Z,59.67
2018-01-27T10:23:57.246Z,58.00
2018-01-27T10:26:25.705Z,62.83
2018-01-27T10:28:54.104Z,66.63
2018-01-27T10:31:22.524Z,62.93
2018-01-27T10:33:50.916Z,63.80
2018-01-27T10:36:19.429Z,64.33
2018-01-27T10:38:47.873Z,62.40
2018-01-27T10:41:16.335Z,66.57
2018-01-27T10:43:44.769Z,63.37
2018-01-27T10:46:13.245Z,63.83
2018-01-27T10:48:41.724Z,73.80
2018-01-27T10:51:10.196Z,65.33
2018-01-27T10:53:38.592Z,67.53
2018-01-27T10:56:07.041Z,67.20
2018-01-27T10:58:35.497Z,72.47
2018-01-27T11:01:03.937Z,64.13
2018-01-27T11:03:32.404Z,66.60
2018-01-27T11:06:00.832Z,65.63
2018-01-27T11:08:29.280Z,66.40
2018-01-27T11:10:57.715Z,68.57
2018-01-27T11:13:26.150Z,66.60
2018-01-27T11:15:54.553Z,71.33
2018-01-27T11:18:22.954Z,71.33
2018-01-27T11:20:51.413Z,71.17
2018-01-27T11:23:19.817Z,72.70
2018-01-27T11:25:48.214Z,67.97
2018-01-27T11:28:16.644Z,71.77
2018-01-27T11:30:45.185Z,69.73
2018-01-27T11:33:13.616Z,66.73
2018-01-27T11:35:42.132Z,71.50
2018-01-27T11:38:10.590Z,59.33
2018-01-27T11:40:38.981Z,59.23
2018-01-27T11:43:07.493Z,63.30
2018-01-27T11:45:35.949Z,55.00
2018-01-27T11:48:04.332Z,58.60
2018-01-27T11:50:32.754Z,58.07
2018-01-27T11:53:01.277Z,51.77
2018-01-27T11:55:29.729Z,54.80
2018-01-27T11:57:58.177Z,62.70
2018-01-27T12:00:26.604Z,55.73
2018-01-27T12:02:55.121Z,56.73
2018-01-27T12:05:23.525Z,56.47
2018-01-27T12:07:52.009Z,62.00
2018-01-27T12:10:20.430Z,61.27
2018-01-27T12:12:49.304Z,54.97
2018-01-27T12:15:17.712Z,59.30
2018-01-27T12:17:46.153Z,53.20
2018-01-27T12:20:14.629Z,55.17
2018-01-27T12:22:43.065Z,52.93
2018-01-27T12:25:11.477Z,53.60
2018-01-27T12:27:39.898Z,53.83
2018-01-27T12:30:08.528Z,53.97
2018-01-27T12:32:36.981Z,51.37
2018-01-27T12:35:05.416Z,51.43
2018-01-27T12:37:33.852Z,50.23
2018-01-27T12:40:02.285Z,52.23
2018-01-27T12:42:30.682Z,48.63
2018-01-27T12:44:59.198Z,58.67
2018-01-27T12:47:27.609Z,53.57
2018-01-27T12:49:56.014Z,52.80
2018-01-27T12:52:24.501Z,54.13
2018-01-27T12:54:52.981Z,50.87
2018-01-27T12:57:21.443Z,54.03
2018-01-27T12:59:49.833Z,54.67
2018-01-27T13:02:18.234Z,52.40
2018-01-27T13:04:46.656Z,51.03
2018-01-27T13:07:15.053Z,50.20
2018-01-27T13:09:43.545Z,50.47
2018-01-27T13:12:12.009Z,52.57
2018-01-27T13:14:40.455Z,53.27
2018-01-27T13:17:08.881Z,59.93
2018-01-27T13:19:37.360Z,58.67
2018-01-27T13:22:05.844Z,55.00
2018-01-27T13:24:34.281Z,55.73
2018-01-27T13:27:02.677Z,51.57
2018-01-27T13:29:31.133Z,56.23
2018-01-27T13:31:59.621Z,53.97
2018-01-27T13:34:28.019Z,53.50
2018-01-27T13:36:56.491Z,58.03
2018-01-27T13:39:24.952Z,49.33
2018-01-27T13:41:53.394Z,52.17
2018-01-27T13:44:21.787Z,50.63
2018-01-27T13:46:50.220Z,51.27
2018-01-27T13:49:18.603Z,49.57
2018-01-27T13:51:47.057Z,52.77
2018-01-27T13:54:15.490Z,52.30
2018-01-27T13:56:43.893Z,49.63
2018-01-27T13:59:12.405Z,47.90
2018-01-27T14:01:40.853Z,53.10
2018-01-27T14:04:09.245Z,51.97
2018-01-27T14:06:37.728Z,51.07
2018-01-27T14:09:06.117Z,51.27
2018-01-27T14:11:34.533Z,50.37
2018-01-27T14:14:03.003Z,47.13
2018-01-27T14:16:31.403Z,47.40
2018-01-27T14:18:59.906Z,49.80
2018-01-27T14:21:28.342Z,48.10
2018-01-27T14:23:56.834Z,47.73
2018-01-27T14:26:25.237Z,45.57
2018-01-27T14:28:53.666Z,48.37
2018-01-27T14:31:22.121Z,44.83
2018-01-27T14:33:50.645Z,43.70
2018-01-27T14:36:19.097Z,40.33
2018-01-27T14:38:47.506Z,39.53
2018-01-27T14:41:15.937Z,36.93
2018-01-27T14:43:44.441Z,37.90
2018-01-27T14:46:12.929Z,41.43
2018-01-27T14:48:41.455Z,42.80
2018-01-27T14:51:09.896Z,36.43
2018-01-27T14:53:38.357Z,37.00
2018-01-27T14:56:06.830Z,41.47
2018-01-27T14:58:35.262Z,42.13
2018-01-27T15:01:03.758Z,40.40
2018-01-27T15:03:32.184Z,42.50
2018-01-27T15:06:00.629Z,42.67
2018-01-27T15:08:29.025Z,48.23
2018-01-27T15:10:57.465Z,47.17
2018-01-27T15:13:25.862Z,45.17
2018-01-27T15:15:54.362Z,45.87
2018-01-27T15:18:22.821Z,44.17
2018-01-27T15:20:51.225Z,45.67
2018-01-27T15:23:19.661Z,49.33
2018-01-27T15:25:48.089Z,43.73
2018-01-27T15:28:16.537Z,43.87
2018-01-27T15:30:44.934Z,46.43
2018-01-27T15:33:13.337Z,48.73
2018-01-27T15:35:41.749Z,47.07
2018-01-27T15:38:10.257Z,69.83
2018-01-27T15:40:38.749Z,58.27
2018-01-27T15:43:07.145Z,52.17
2018-01-27T15:45:35.583Z,53.13
2018-01-27T15:48:04.026Z,56.17
2018-01-27T15:50:32.452Z,54.33
2018-01-27T15:53:00.854Z,55.63
2018-01-27T15:55:29.306Z,47.90
2018-01-27T15:57:57.732Z,57.27
2018-01-27T16:00:26.174Z,50.60
2018-01-27T16:02:54.645Z,53.60
2018-01-27T16:05:23.392Z,56.43
2018-01-27T16:07:51.881Z,49.93
2018-01-27T16:10:20.385Z,56.33
2018-01-27T16:12:48.823Z,54.60
2018-01-27T16:15:17.313Z,52.80
2018-01-27T16:17:45.763Z,50.23
2018-01-27T16:20:14.258Z,62.03
2018-01-27T16:22:42.689Z,58.97
2018-01-27T16:25:11.140Z,59.13
2018-01-27T16:27:39.568Z,55.30
2018-01-27T16:30:08.065Z,61.90
2018-01-27T16:32:36.528Z,67.80
2018-01-27T16:35:04.961Z,57.90
2018-01-27T16:37:33.365Z,56.30
2018-01-27T16:40:01.865Z,55.80
2018-01-27T16:42:30.257Z,56.47
2018-01-27T16:44:58.740Z,51.83
2018-01-27T16:47:27.241Z,63.70
2018-01-27T16:49:55.677Z,58.40
2018-01-27T16:52:24.069Z,59.23
2018-01-27T16:54:52.524Z,58.30
2018-01-27T16:57:20.992Z,68.07
2018-01-27T16:59:49.384Z,60.53
2018-01-27T17:02:17.880Z,62.50
2018-01-27T17:04:46.365Z,64.20
2018-01-27T17:07:14.862Z,59.03
2018-01-27T17:09:43.292Z,74.70
2018-01-27T17:12:11.749Z,69.63
2018-01-27T17:14:40.157Z,66.13
2018-01-27T17:17:08.553Z,64.37
2018-01-27T17:19:36.994Z,69.83
2018-01-27T17:22:05.396Z,67.47
2018-01-27T17:24:33.832Z,69.97
2018-01-27T17:27:02.301Z,79.17
2018-01-27T17:29:30.771Z,74.87
2018-01-27T17:31:59.192Z,74.53
2018-01-27T17:34:27.725Z,72.50
2018-01-27T17:36:56.126Z,73.27
2018-01-27T17:39:24.521Z,85.70
2018-01-27T17:41:52.956Z,96.73
2018-01-27T17:44:21.454Z,74.13
2018-01-27T17:46:49.846Z,79.70
2018-01-27T17:49:18.274Z,80.17
2018-01-27T17:51:46.656Z,86.47
2018-01-27T17:54:15.119Z,105.97
2018-01-27T17:56:43.573Z,85.37
2018-01-27T17:59:12.069Z,94.73
2018-01-27T18:01:40.513Z,101.63
2018-01-27T18:04:08.973Z,96.37
2018-01-27T18:06:37.437Z,94.20
2018-01-27T18:09:05.830Z,94.73
2018-01-27T18:11:34.332Z,97.30
2018-01-27T18:14:02.761Z,94.73
2018-01-27T18:16:31.169Z,108.63
2018-01-27T18:18:59.647Z,95.47
2018-01-27T18:21:28.078Z,99.90
2018-01-27T18:23:56.468Z,112.10
2018-01-27T18:26:24.915Z,100.87
2018-01-27T18:28:53.344Z,109.67
2018-01-27T18:31:21.746Z,99.53
2018-01-27T18:33:50.292Z,100.67
2018-01-27T18:36:18.879Z,117.27
2018-01-27T18:38:47.314Z,105.73
2018-01-27T18:41:15.753Z,107.03
2018-01-27T18:43:44.168Z,90.80
2018-01-27T18:46:12.555Z,107.57
2018-01-27T18:48:41.019Z,113.22
2018-01-27T18:51:09.461Z,107.10
2018-01-27T18:53:37.975Z,108.30
2018-01-27T18:56:06.382Z,111.53
2018-01-27T18:58:34.835Z,109.03
2018-01-27T19:01:03.293Z,111.07
2018-01-27T19:03:31.749Z,124.33
2018-01-27T19:06:00.211Z,124.33
2018-01-27T19:08:28.666Z,109.77
2018-01-27T19:10:57.061Z,130.27
2018-01-27T19:13:25.500Z,115.37
2018-01-27T19:15:53.971Z,131.83
2018-01-27T19:18:22.480Z,140.90
2018-01-27T19:20:50.934Z,137.30
2018-01-27T19:23:19.389Z,170.87
2018-01-27T19:25:47.897Z,149.90
2018-01-27T19:28:16.366Z,149.07
2018-01-27T19:30:44.836Z,156.43
2018-01-27T19:33:13.262Z,139.13
2018-01-27T19:35:41.741Z,129.97
2018-01-27T19:38:10.140Z,142.03
2018-01-27T19:40:38.630Z,131.80
2018-01-27T19:43:07.081Z,136.33
2018-01-27T19:45:35.599Z,145.30
2018-01-27T19:48:04.027Z,150.23
2018-01-27T19:50:32.541Z,157.63
2018-01-27T19:53:00.950Z,158.20
2018-01-27T19:55:29.386Z,168.80
2018-01-27T19:57:57.885Z,167.00
2018-01-27T20:00:26.337Z,161.87
2018-01-27T20:02:54.733Z,167.23
2018-01-27T20:05:23.252Z,167.40
2018-01-27T20:07:51.724Z,166.75
2018-01-27T20:10:20.141Z,171.55
2018-01-27T20:12:48.629Z,167.07
2018-01-27T20:15:17.080Z,175.13
2018-01-27T20:17:45.535Z,169.90
2018-01-27T20:20:13.986Z,165.17
2018-01-27T20:22:42.494Z,163.07
2018-01-27T20:25:11.022Z,167.20
2018-01-27T20:27:39.473Z,171.83
2018-01-27T20:30:07.945Z,180.10
2018-01-27T20:32:36.381Z,158.87
2018-01-27T20:35:04.889Z,149.47
2018-01-27T20:37:33.404Z,143.70
2018-01-27T20:40:01.845Z,150.23
2018-01-27T20:42:30.354Z,152.53
2018-01-27T20:44:58.770Z,154.50
2018-01-27T20:47:27.228Z,148.00
2018-01-27T20:49:55.734Z,139.77
2018-01-27T20:52:24.250Z,155.17
2018-01-27T20:54:52.723Z,144.67
2018-01-27T20:57:21.210Z,151.80
2018-01-27T20:59:49.704Z,166.87
2018-01-27T21:02:18.118Z,155.50
2018-01-27T21:04:46.673Z,152.43
2018-01-27T21:07:15.140Z,158.57
2018-01-27T21:09:43.565Z,164.67
2018-01-27T21:12:12.005Z,162.93
2018-01-27T21:14:40.509Z,155.07
2018-01-27T21:17:09.001Z,158.47
2018-01-27T21:19:37.516Z,162.57
2018-01-27T21:22:05.996Z,160.43
2018-01-27T21:24:34.497Z,147.33
2018-01-27T21:27:02.965Z,160.90
2018-01-27T21:29:31.423Z,162.20
2018-01-27T21:31:59.856Z,163.43
2018-01-27T21:34:28.269Z,160.43
2018-01-27T21:36:56.769Z,160.53
2018-01-27T21:39:25.173Z,155.73
2018-01-27T21:41:53.626Z,155.30
2018-01-27T21:44:22.096Z,164.45
2018-01-27T21:46:50.509Z,160.37
2018-01-27T21:49:18.962Z,167.87
2018-01-27T21:51:47.446Z,156.60
2018-01-27T21:54:15.929Z,156.20
2018-01-27T21:56:44.373Z,151.97
2018-01-27T21:59:12.845Z,151.95
2018-01-27T22:01:41.308Z,138.00
2018-01-27T22:04:09.804Z,148.83
2018-01-27T22:06:38.257Z,146.50
2018-01-27T22:09:06.697Z,137.80
2018-01-27T22:11:35.097Z,146.10
2018-01-27T22:14:03.553Z,137.90
2018-01-27T22:16:31.985Z,136.27
2018-01-27T22:19:00.437Z,144.37
2018-01-27T22:21:28.929Z,140.70
2018-01-27T22:23:57.337Z,138.47
2018-01-27T22:26:25.788Z,143.10
2018-01-27T22:28:54.189Z,144.70
2018-01-27T22:31:22.643Z,130.65
2018-01-27T22:33:51.117Z,142.60
2018-01-27T22:36:19.633Z,131.27
2018-01-27T22:38:48.041Z,125.12
2018-01-27T22:41:16.461Z,124.78
2018-01-27T22:43:44.906Z,108.07
2018-01-27T22:46:13.312Z,105.20
2018-01-27T22:48:41.766Z,104.38
2018-01-27T22:51:10.189Z,100.68
2018-01-27T22:53:38.640Z,103.40
2018-01-27T22:56:07.061Z,106.25
2018-01-27T22:58:35.536Z,113.35
2018-01-27T23:01:09.472Z,111.47
2018-01-27T23:03:37.959Z,116.20
2018-01-27T23:06:06.527Z,121.18
2018-01-27T23:08:34.960Z,114.05
2018-01-27T23:11:03.461Z,123.53
2018-01-27T23:13:31.980Z,123.82
2018-01-27T23:16:00.479Z,122.03
2018-01-27T23:18:28.928Z,121.65
2018-01-27T23:20:57.373Z,121.65
2018-01-27T23:23:25.875Z,118.37
2018-01-27T23:25:54.290Z,106.22
2018-01-27T23:28:22.726Z,102.78
2018-01-27T23:30:51.168Z,107.53
2018-01-27T23:33:19.577Z,114.55
2018-01-27T23:35:48.070Z,113.68
2018-01-27T23:38:16.473Z,119.03
2018-01-27T23:40:44.949Z,122.28
2018-01-27T23:43:13.392Z,118.37
2018-01-27T23:45:41.875Z,123.30
2018-01-27T23:48:10.326Z,117.20
2018-01-27T23:50:38.776Z,120.90
2018-01-27T23:53:07.189Z,120.15
2018-01-27T23:55:35.652Z,127.53
2018-01-27T23:58:04.169Z,134.12
